createdAt,value
2022-12-24T00:00:10.960Z,215.77
2022-12-24T00:02:37.964Z,215.73
2022-12-24T00:05:05.193Z,219.35
2022-12-24T00:07:31.969Z,210.02
2022-12-24T00:09:58.726Z,215.50
2022-12-24T00:12:25.789Z,218.68
2022-12-24T00:14:52.647Z,203.25
2022-12-24T00:17:19.476Z,207.30
2022-12-24T00:19:46.297Z,209.82
2022-12-24T00:22:13.070Z,191.88
2022-12-24T00:24:39.792Z,202.10
2022-12-24T00:27:06.612Z,214.40
2022-12-24T00:29:33.891Z,209.73
2022-12-24T00:32:00.798Z,191.82
2022-12-24T00:34:27.750Z,204.68
2022-12-24T00:36:54.659Z,191.93
2022-12-24T00:39:21.514Z,212.10
2022-12-24T00:41:48.364Z,194.75
2022-12-24T00:44:15.299Z,180.73
2022-12-24T00:46:42.217Z,183.25
2022-12-24T00:49:09.491Z,177.23
2022-12-24T00:51:37.056Z,178.25
2022-12-24T00:54:04.360Z,185.00
2022-12-24T00:56:31.202Z,192.93
2022-12-24T00:58:58.040Z,197.20
2022-12-24T01:01:25.098Z,208.30
2022-12-24T01:03:52.352Z,183.40
2022-12-24T01:06:20.768Z,186.50
2022-12-24T01:08:50.438Z,173.93
2022-12-24T01:11:17.268Z,189.55
2022-12-24T01:13:44.089Z,182.05
2022-12-24T01:16:20.461Z,191.20
2022-12-24T01:18:47.419Z,193.93
2022-12-24T01:21:14.628Z,196.00
2022-12-24T01:23:41.415Z,207.23
2022-12-24T01:26:08.308Z,200.60
2022-12-24T01:28:35.244Z,192.30
2022-12-24T01:31:02.046Z,181.77
2022-12-24T01:33:29.658Z,194.93
2022-12-24T01:35:56.484Z,179.23
2022-12-24T01:38:23.284Z,203.02
2022-12-24T01:41:13.103Z,190.02
2022-12-24T01:43:39.893Z,187.93
2022-12-24T01:46:19.936Z,192.95
2022-12-24T01:48:50.140Z,189.60
2022-12-24T01:51:45.146Z,187.18
2022-12-24T01:54:15.389Z,194.77
2022-12-24T01:56:45.206Z,196.18
2022-12-24T01:59:13.071Z,198.93
2022-12-24T02:01:39.976Z,206.90
2022-12-24T02:04:24.437Z,187.82
2022-12-24T02:06:51.204Z,207.80
2022-12-24T02:09:18.038Z,197.57
2022-12-24T02:11:44.994Z,181.65
2022-12-24T02:14:11.818Z,184.05
2022-12-24T02:16:53.299Z,191.75
2022-12-24T02:19:35.321Z,184.20
2022-12-24T02:22:07.984Z,175.45
2022-12-24T02:25:00.689Z,179.90
2022-12-24T02:27:27.431Z,173.63
2022-12-24T02:29:54.235Z,182.93
2022-12-24T02:32:24.632Z,173.50
2022-12-24T02:34:55.565Z,183.98
2022-12-24T02:39:51.494Z,170.75
2022-12-24T02:42:20.911Z,184.10
2022-12-24T02:44:49.962Z,187.07
2022-12-24T02:47:17.269Z,183.90
2022-12-24T02:49:45.608Z,177.65
2022-12-24T02:52:32.264Z,177.63
2022-12-24T02:55:01.352Z,192.95
2022-12-24T02:57:37.027Z,193.30
2022-12-24T03:00:12.500Z,188.82
2022-12-24T03:02:54.523Z,172.45
2022-12-24T03:05:39.693Z,163.88
2022-12-24T03:08:39.690Z,173.50
2022-12-24T03:11:11.045Z,158.27
2022-12-24T03:13:37.907Z,201.05
2022-12-24T03:16:09.202Z,157.82
2022-12-24T03:18:37.170Z,172.57
2022-12-24T03:21:18.031Z,162.40
2022-12-24T03:23:44.817Z,151.98
2022-12-24T03:26:12.118Z,155.68
2022-12-24T03:28:39.794Z,152.15
2022-12-24T03:31:07.294Z,155.10
2022-12-24T03:33:34.326Z,154.43
2022-12-24T03:36:01.301Z,170.07
2022-12-24T03:38:28.134Z,146.75
2022-12-24T03:40:54.981Z,146.95
2022-12-24T03:43:21.837Z,148.52
2022-12-24T03:45:48.702Z,149.20
2022-12-24T03:48:15.513Z,160.07
2022-12-24T03:50:42.307Z,157.15
2022-12-24T03:53:09.101Z,156.93
2022-12-24T03:55:35.936Z,149.57
2022-12-24T03:58:02.675Z,154.35
2022-12-24T04:00:29.534Z,155.05
2022-12-24T04:02:56.443Z,150.07
2022-12-24T04:05:23.505Z,146.13
2022-12-24T04:07:50.344Z,144.13
2022-12-24T04:10:17.328Z,138.10
2022-12-24T04:12:44.304Z,134.45
2022-12-24T04:15:11.412Z,137.18
2022-12-24T04:17:38.271Z,143.45
2022-12-24T04:20:05.608Z,148.77
2022-12-24T04:22:32.703Z,151.77
2022-12-24T04:24:59.457Z,150.95
2022-12-24T04:27:30.302Z,141.90
2022-12-24T04:29:57.913Z,137.32
2022-12-24T04:32:26.350Z,144.82
2022-12-24T04:34:53.311Z,153.40
2022-12-24T04:37:20.299Z,138.88
2022-12-24T04:39:47.077Z,146.02
2022-12-24T04:42:13.896Z,130.73
2022-12-24T04:44:40.669Z,126.88
2022-12-24T04:47:07.458Z,135.30
2022-12-24T04:49:34.269Z,139.40
2022-12-24T04:52:01.021Z,116.32
2022-12-24T04:54:27.971Z,125.93
2022-12-24T04:56:54.795Z,135.27
2022-12-24T04:59:21.504Z,125.85
2022-12-24T05:01:48.381Z,111.90
2022-12-24T05:04:15.263Z,115.38
2022-12-24T05:06:42.076Z,112.40
2022-12-24T05:09:08.875Z,111.15
2022-12-24T05:11:35.615Z,104.53
2022-12-24T05:14:02.429Z,114.57
2022-12-24T05:16:29.355Z,444.90
2022-12-24T05:18:56.213Z,144.18
2022-12-24T05:21:23.862Z,158.32
2022-12-24T05:24:09.095Z,120.25
2022-12-24T05:26:41.788Z,129.38
2022-12-24T05:29:09.093Z,136.75
2022-12-24T05:31:36.334Z,136.02
2022-12-24T05:34:03.408Z,127.95
2022-12-24T05:36:30.527Z,128.60
2022-12-24T05:38:57.423Z,123.00
2022-12-24T05:41:24.353Z,130.30
2022-12-24T05:43:51.259Z,117.38
2022-12-24T05:46:19.276Z,125.47
2022-12-24T05:48:46.457Z,124.78
2022-12-24T05:51:13.933Z,145.40
2022-12-24T05:53:40.857Z,135.38
2022-12-24T05:56:09.440Z,139.77
2022-12-24T05:58:36.587Z,139.43
2022-12-24T06:01:03.867Z,139.18
2022-12-24T06:03:31.102Z,119.63
2022-12-24T06:06:02.319Z,127.00
2022-12-24T06:08:29.191Z,144.35
2022-12-24T06:10:59.817Z,133.23
2022-12-24T06:13:26.773Z,130.52
2022-12-24T06:15:57.674Z,131.45
2022-12-24T06:20:54.662Z,129.05
2022-12-24T06:23:21.772Z,124.05
2022-12-24T06:25:48.672Z,133.43
2022-12-24T06:28:15.445Z,136.38
2022-12-24T06:30:42.318Z,133.60
2022-12-24T06:33:09.126Z,127.57
2022-12-24T06:35:35.924Z,131.55
2022-12-24T06:38:02.744Z,113.45
2022-12-24T06:40:29.510Z,121.75
2022-12-24T06:42:56.348Z,122.13
2022-12-24T06:45:23.185Z,114.15
2022-12-24T06:47:49.981Z,113.93
2022-12-24T06:50:16.838Z,121.53
2022-12-24T06:52:43.636Z,124.47
2022-12-24T06:55:10.575Z,108.40
2022-12-24T06:57:37.376Z,111.63
2022-12-24T07:00:04.874Z,137.00
2022-12-24T07:02:31.801Z,128.60
2022-12-24T07:04:58.596Z,179.40
2022-12-24T07:07:25.389Z,152.93
2022-12-24T07:09:52.154Z,173.00
2022-12-24T07:12:18.938Z,143.82
2022-12-24T07:14:45.696Z,137.25
2022-12-24T07:17:12.598Z,133.52
2022-12-24T07:19:39.498Z,126.25
2022-12-24T07:22:11.731Z,124.70
2022-12-24T07:24:41.938Z,133.20
2022-12-24T07:27:08.936Z,129.57
2022-12-24T07:29:35.696Z,121.43
2022-12-24T07:32:02.531Z,124.53
2022-12-24T07:34:29.338Z,119.88
2022-12-24T07:36:56.127Z,118.88
2022-12-24T07:39:22.943Z,114.10
2022-12-24T07:41:50.499Z,123.38
2022-12-24T07:44:17.367Z,111.90
2022-12-24T07:46:44.421Z,119.03
2022-12-24T07:49:12.543Z,115.85
2022-12-24T07:51:39.383Z,110.13
2022-12-24T07:54:06.183Z,114.68
2022-12-24T07:56:33.168Z,112.25
2022-12-24T07:59:00.015Z,110.20
2022-12-24T08:01:26.882Z,108.53
2022-12-24T08:03:54.861Z,112.07
2022-12-24T08:06:22.248Z,103.60
2022-12-24T08:08:49.225Z,108.68
2022-12-24T08:11:16.532Z,107.53
2022-12-24T08:13:43.325Z,107.78
2022-12-24T08:16:10.432Z,87.72
2022-12-24T08:18:37.233Z,106.88
2022-12-24T08:21:06.660Z,118.78
2022-12-24T08:23:33.499Z,124.30
2022-12-24T08:26:00.336Z,111.82
2022-12-24T08:28:27.188Z,110.63
2022-12-24T08:30:54.152Z,119.63
2022-12-24T08:33:21.025Z,117.57
2022-12-24T08:35:49.122Z,127.85
2022-12-24T08:38:16.719Z,126.35
2022-12-24T08:40:44.064Z,134.18
2022-12-24T08:43:10.911Z,132.10
2022-12-24T08:45:40.861Z,143.48
2022-12-24T08:48:08.569Z,127.70
2022-12-24T08:50:35.597Z,137.48
2022-12-24T08:53:02.354Z,129.40
2022-12-24T08:55:29.201Z,129.60
2022-12-24T08:57:56.029Z,130.07
2022-12-24T09:00:22.885Z,128.32
2022-12-24T09:02:49.986Z,125.05
2022-12-24T09:05:16.871Z,144.15
2022-12-24T09:07:43.712Z,132.80
2022-12-24T09:10:11.120Z,137.13
2022-12-24T09:12:38.139Z,146.05
2022-12-24T09:15:08.060Z,126.45
2022-12-24T09:17:35.756Z,137.97
2022-12-24T09:20:03.294Z,147.65
2022-12-24T09:22:30.035Z,136.82
2022-12-24T09:24:56.819Z,141.77
2022-12-24T09:27:23.609Z,140.82
2022-12-24T09:29:50.409Z,133.45
2022-12-24T09:32:17.460Z,143.18
2022-12-24T09:34:44.462Z,139.48
2022-12-24T09:37:11.266Z,136.48
2022-12-24T09:39:38.042Z,133.73
2022-12-24T09:42:16.067Z,151.13
2022-12-24T09:45:20.792Z,166.35
2022-12-24T09:47:50.496Z,153.20
2022-12-24T09:50:29.267Z,157.55
2022-12-24T09:52:56.099Z,152.13
2022-12-24T09:55:28.885Z,144.02
2022-12-24T09:57:56.002Z,163.07
2022-12-24T10:00:26.735Z,163.70
2022-12-24T10:02:53.668Z,162.00
2022-12-24T10:05:29.915Z,174.48
2022-12-24T10:08:23.794Z,161.82
2022-12-24T10:10:51.865Z,158.43
2022-12-24T10:13:40.606Z,142.07
2022-12-24T10:16:20.100Z,131.07
2022-12-24T10:19:05.898Z,127.28
2022-12-24T10:21:56.477Z,147.70
2022-12-24T10:24:34.768Z,173.32
2022-12-24T10:27:15.252Z,145.55
2022-12-24T10:29:49.967Z,153.95
2022-12-24T10:32:23.566Z,145.38
2022-12-24T10:34:54.102Z,153.52
2022-12-24T10:37:24.219Z,142.65
2022-12-24T10:39:51.672Z,157.35
2022-12-24T10:42:18.478Z,157.75
2022-12-24T10:44:47.747Z,163.63
2022-12-24T10:47:14.514Z,166.35
2022-12-24T10:49:48.889Z,169.43
2022-12-24T10:52:17.854Z,167.52
2022-12-24T10:55:08.039Z,141.05
2022-12-24T10:57:35.086Z,149.75
2022-12-24T11:00:01.848Z,329.67
2022-12-24T11:02:38.779Z,149.00
2022-12-24T11:05:32.743Z,157.20
2022-12-24T11:08:03.588Z,141.55
2022-12-24T11:10:31.072Z,150.80
2022-12-24T11:13:27.823Z,149.77
2022-12-24T11:15:44.581Z,147.98
2022-12-24T11:18:15.060Z,142.77
2022-12-24T11:20:41.895Z,137.77
2022-12-24T11:23:14.806Z,156.02
2022-12-24T11:25:41.625Z,136.30
2022-12-24T11:28:13.298Z,148.00
2022-12-24T11:30:40.116Z,167.15
2022-12-24T11:33:09.883Z,174.57
2022-12-24T11:35:41.346Z,160.55
2022-12-24T11:38:08.077Z,161.55
2022-12-24T11:40:45.112Z,169.60
2022-12-24T11:43:17.340Z,170.05
2022-12-24T11:45:54.921Z,160.77
2022-12-24T11:48:32.862Z,171.30
2022-12-24T11:51:04.241Z,169.70
2022-12-24T11:53:36.660Z,179.43
2022-12-24T11:56:06.591Z,157.82
2022-12-24T11:58:43.503Z,182.47
2022-12-24T12:01:33.796Z,161.93
2022-12-24T12:04:02.579Z,185.00
2022-12-24T12:06:49.564Z,181.18
2022-12-24T12:09:47.115Z,178.23
2022-12-24T12:12:27.704Z,162.82
2022-12-24T12:15:00.458Z,166.38
2022-12-24T12:17:39.866Z,163.40
2022-12-24T12:20:16.884Z,194.98
2022-12-24T12:22:55.515Z,149.48
2022-12-24T12:25:41.680Z,162.30
2022-12-24T12:28:32.655Z,141.20
2022-12-24T12:31:15.740Z,165.10
2022-12-24T12:33:53.097Z,172.15
2022-12-24T12:36:23.100Z,180.63
2022-12-24T12:38:51.137Z,166.90
2022-12-24T12:42:05.012Z,171.13
2022-12-24T12:44:44.939Z,184.30
2022-12-24T12:47:42.302Z,194.35
2022-12-24T12:50:17.863Z,254.63
2022-12-24T12:52:44.549Z,239.52
2022-12-24T12:55:30.137Z,212.63
2022-12-24T12:58:00.323Z,218.48
2022-12-24T13:00:28.196Z,225.93
2022-12-24T13:03:33.510Z,249.27
2022-12-24T13:06:19.054Z,275.65
2022-12-24T13:09:06.537Z,243.30
2022-12-24T13:11:33.292Z,225.73
2022-12-24T13:14:03.131Z,221.88
2022-12-24T13:16:39.257Z,225.27
2022-12-24T13:19:08.926Z,210.65
2022-12-24T13:21:35.748Z,222.88
2022-12-24T13:24:22.546Z,216.35
2022-12-24T13:27:19.341Z,216.18
2022-12-24T13:29:59.086Z,216.77
2022-12-24T13:32:28.563Z,204.13
2022-12-24T13:35:03.229Z,212.52
2022-12-24T13:37:32.880Z,228.10
2022-12-24T13:40:05.801Z,223.93
2022-12-24T13:43:06.502Z,233.10
2022-12-24T13:45:39.373Z,254.18
2022-12-24T13:48:06.150Z,248.95
2022-12-24T13:50:49.231Z,270.65
2022-12-24T13:53:28.696Z,268.80
2022-12-24T13:55:56.948Z,258.40
2022-12-24T13:58:24.576Z,237.25
2022-12-24T14:01:06.498Z,287.25
2022-12-24T14:03:58.071Z,301.52
2022-12-24T14:06:32.744Z,267.92
2022-12-24T14:09:17.646Z,264.45
2022-12-24T14:11:53.618Z,268.15
2022-12-24T14:14:28.356Z,293.20
2022-12-24T14:16:57.442Z,277.77
2022-12-24T14:19:26.258Z,261.80
2022-12-24T14:22:11.546Z,206.05
2022-12-24T14:24:41.780Z,217.35
2022-12-24T14:27:19.080Z,238.98
2022-12-24T14:30:08.842Z,262.88
2022-12-24T14:32:40.216Z,271.65
2022-12-24T14:35:20.009Z,290.17
2022-12-24T14:37:49.348Z,301.38
2022-12-24T14:40:18.072Z,314.48
2022-12-24T14:42:53.845Z,289.10
2022-12-24T14:45:29.527Z,291.77
2022-12-24T14:48:14.938Z,299.67
2022-12-24T14:51:00.458Z,281.27
2022-12-24T14:53:36.619Z,286.27
2022-12-24T14:56:29.930Z,296.60
2022-12-24T14:58:59.115Z,302.73
2022-12-24T15:01:27.548Z,262.63
2022-12-24T15:04:01.340Z,248.93
2022-12-24T15:06:28.605Z,259.92
2022-12-24T15:08:55.462Z,268.45
2022-12-24T15:11:22.987Z,242.20
2022-12-24T15:13:57.180Z,235.82
2022-12-24T15:16:34.373Z,163.75
2022-12-24T15:19:05.686Z,163.45
2022-12-24T15:21:34.250Z,219.30
2022-12-24T15:24:01.169Z,272.40
2022-12-24T15:26:30.178Z,278.20
2022-12-24T15:29:03.303Z,261.65
2022-12-24T15:31:30.717Z,255.48
2022-12-24T15:33:59.226Z,249.93
2022-12-24T15:36:36.363Z,249.73
2022-12-24T15:39:07.551Z,253.82
2022-12-24T15:42:01.624Z,234.45
2022-12-24T15:44:36.878Z,201.90
2022-12-24T15:47:05.111Z,184.05
2022-12-24T15:49:32.488Z,203.68
2022-12-24T15:52:10.687Z,224.85
2022-12-24T15:54:37.500Z,207.95
2022-12-24T15:57:20.552Z,195.30
2022-12-24T15:59:51.790Z,233.30
2022-12-24T16:02:24.991Z,212.60
2022-12-24T16:04:51.871Z,243.25
2022-12-24T16:07:25.587Z,226.48
2022-12-24T16:09:52.423Z,210.52
2022-12-24T16:12:21.807Z,208.98
2022-12-24T16:14:53.795Z,214.32
2022-12-24T16:17:30.308Z,234.52
2022-12-24T16:19:59.106Z,213.10
2022-12-24T16:22:31.589Z,170.85
2022-12-24T16:24:59.506Z,179.55
2022-12-24T16:27:26.418Z,177.95
2022-12-24T16:29:53.294Z,216.75
2022-12-24T16:32:32.943Z,183.43
2022-12-24T16:34:59.890Z,121.72
2022-12-24T16:37:26.753Z,138.13
2022-12-24T16:39:53.493Z,134.85
2022-12-24T16:42:38.871Z,162.20
2022-12-24T16:45:06.376Z,162.35
2022-12-24T16:47:38.644Z,152.45
2022-12-24T16:50:11.554Z,135.38
2022-12-24T16:52:38.360Z,150.23
2022-12-24T16:55:05.465Z,124.65
2022-12-24T16:57:33.516Z,122.28
2022-12-24T17:00:00.341Z,121.35
2022-12-24T17:02:27.210Z,106.65
2022-12-24T17:04:54.149Z,178.40
2022-12-24T17:07:21.575Z,116.13
2022-12-24T17:09:48.505Z,95.47
2022-12-24T17:12:15.435Z,210.07
2022-12-24T17:14:42.565Z,115.75
2022-12-24T17:17:27.750Z,103.00
2022-12-24T17:19:55.355Z,104.13
2022-12-24T17:22:22.413Z,95.13
2022-12-24T17:24:49.438Z,128.98
2022-12-24T17:27:16.341Z,117.95
2022-12-24T17:29:43.215Z,75.80
2022-12-24T17:32:09.988Z,85.90
2022-12-24T17:34:37.028Z,82.82
2022-12-24T17:37:03.832Z,90.22
2022-12-24T17:39:30.648Z,50.03
2022-12-24T17:41:57.455Z,68.55
2022-12-24T17:44:24.225Z,75.60
2022-12-24T17:46:51.141Z,61.70
2022-12-24T17:49:18.053Z,59.50
2022-12-24T17:51:46.015Z,65.43
2022-12-24T17:54:13.373Z,67.00
2022-12-24T17:56:40.221Z,80.75
2022-12-24T17:59:07.001Z,115.47
2022-12-24T18:01:33.896Z,125.47
2022-12-24T18:04:01.795Z,99.57
2022-12-24T18:06:28.908Z,149.32
2022-12-24T18:08:56.019Z,232.07
2022-12-24T18:11:26.903Z,239.30
2022-12-24T18:13:54.364Z,223.70
2022-12-24T18:16:24.650Z,223.98
2022-12-24T18:18:51.662Z,222.00
2022-12-24T18:21:19.615Z,184.48
2022-12-24T18:23:47.259Z,181.90
2022-12-24T18:26:15.462Z,172.63
2022-12-24T18:28:42.712Z,162.25
2022-12-24T18:31:12.389Z,174.88
2022-12-24T18:33:41.069Z,184.82
2022-12-24T18:36:08.476Z,169.13
2022-12-24T18:38:35.493Z,177.63
2022-12-24T18:41:06.859Z,170.63
2022-12-24T18:43:33.843Z,167.30
2022-12-24T18:46:00.680Z,176.27
2022-12-24T18:48:27.497Z,186.20
2022-12-24T18:50:55.703Z,176.68
2022-12-24T18:53:22.521Z,179.35
2022-12-24T18:55:49.292Z,179.93
2022-12-24T18:58:16.056Z,162.05
2022-12-24T19:00:42.909Z,175.95
2022-12-24T19:03:09.742Z,200.00
2022-12-24T19:05:36.574Z,203.45
2022-12-24T19:08:22.153Z,211.60
2022-12-24T19:10:50.129Z,210.32
2022-12-24T19:13:16.842Z,213.73
2022-12-24T19:15:43.637Z,223.23
2022-12-24T19:18:10.498Z,224.95
2022-12-24T19:20:39.475Z,232.18
2022-12-24T19:23:07.404Z,239.75
2022-12-24T19:25:34.711Z,232.93
2022-12-24T19:28:02.169Z,216.07
2022-12-24T19:30:28.973Z,210.43
2022-12-24T19:32:58.810Z,212.98
2022-12-24T19:35:25.642Z,211.95
2022-12-24T19:37:52.464Z,203.10
2022-12-24T19:40:19.349Z,240.00
2022-12-24T19:42:48.029Z,221.05
2022-12-24T19:45:14.860Z,208.70
2022-12-24T19:47:41.633Z,208.05
2022-12-24T19:50:08.726Z,218.20
2022-12-24T19:52:35.627Z,217.95
2022-12-24T19:55:02.460Z,233.48
2022-12-24T19:57:29.255Z,226.32
2022-12-24T19:59:56.073Z,243.88
2022-12-24T20:02:22.900Z,240.65
2022-12-24T20:04:50.657Z,235.65
2022-12-24T20:07:17.394Z,231.65
2022-12-24T20:09:44.256Z,233.98
2022-12-24T20:12:11.061Z,218.52
2022-12-24T20:14:37.927Z,202.25
2022-12-24T20:17:05.926Z,209.73
2022-12-24T20:19:32.788Z,256.63
2022-12-24T20:21:59.546Z,232.23
2022-12-24T20:24:28.019Z,226.98
2022-12-24T20:26:54.817Z,228.98
2022-12-24T20:29:21.587Z,250.95
2022-12-24T20:31:49.939Z,225.88
2022-12-24T20:34:16.802Z,217.98
2022-12-24T20:36:43.868Z,209.80
2022-12-24T20:39:11.147Z,221.80
2022-12-24T20:41:38.078Z,250.77
2022-12-24T20:44:05.025Z,224.05
2022-12-24T20:46:32.221Z,236.75
2022-12-24T20:48:59.149Z,234.30
2022-12-24T20:51:26.839Z,236.48
2022-12-24T20:53:55.210Z,233.00
2022-12-24T20:56:22.163Z,243.18
2022-12-24T20:58:49.001Z,272.65
2022-12-24T21:01:26.350Z,266.02
2022-12-24T21:03:54.233Z,255.40
2022-12-24T21:06:21.531Z,242.70
2022-12-24T21:08:48.702Z,233.85
2022-12-24T21:11:33.795Z,245.40
2022-12-24T21:14:02.297Z,229.90
2022-12-24T21:16:32.573Z,207.75
2022-12-24T21:18:59.589Z,237.98
2022-12-24T21:21:26.440Z,239.43
2022-12-24T21:23:53.244Z,253.48
2022-12-24T21:26:20.050Z,229.70
2022-12-24T21:28:46.832Z,232.25
2022-12-24T21:31:14.239Z,222.85
2022-12-24T21:33:41.160Z,228.80
2022-12-24T21:36:08.244Z,234.25
2022-12-24T21:38:35.164Z,244.32
2022-12-24T21:41:12.890Z,250.57
2022-12-24T21:43:40.595Z,267.38
2022-12-24T21:46:12.312Z,284.08
2022-12-24T21:48:57.588Z,291.90
2022-12-24T21:51:24.981Z,306.75
2022-12-24T21:54:10.229Z,290.30
2022-12-24T21:56:56.997Z,314.63
2022-12-24T21:59:26.783Z,293.20
2022-12-24T22:01:54.323Z,280.85
2022-12-24T22:04:21.186Z,281.27
2022-12-24T22:07:06.407Z,286.27
2022-12-24T22:09:53.858Z,281.48
2022-12-24T22:12:20.621Z,314.60
2022-12-24T22:14:47.515Z,306.98
2022-12-24T22:17:18.268Z,315.05
2022-12-24T22:19:48.102Z,303.67
2022-12-24T22:22:14.858Z,294.65
2022-12-24T22:24:41.619Z,293.88
2022-12-24T22:27:08.447Z,310.23
2022-12-24T22:29:35.337Z,338.40
2022-12-24T22:32:02.049Z,340.40
2022-12-24T22:34:29.081Z,366.55
2022-12-24T22:36:55.880Z,371.52
2022-12-24T22:39:23.116Z,417.05
2022-12-24T22:41:52.813Z,404.70
2022-12-24T22:44:19.629Z,362.85
2022-12-24T22:46:46.570Z,324.20
2022-12-24T22:49:14.008Z,253.98
2022-12-24T22:51:40.866Z,247.10
2022-12-24T22:54:07.684Z,179.02
2022-12-24T22:56:40.647Z,176.13
2022-12-24T22:59:08.997Z,194.73
2022-12-24T23:01:37.523Z,212.57
2022-12-24T23:04:06.157Z,209.15
2022-12-24T23:06:33.839Z,233.43
2022-12-24T23:09:00.626Z,203.23
2022-12-24T23:11:27.449Z,185.98
2022-12-24T23:14:12.649Z,223.68
2022-12-24T23:16:39.469Z,227.00
2022-12-24T23:19:06.562Z,197.55
2022-12-24T23:21:33.519Z,250.45
2022-12-24T23:24:00.812Z,236.57
2022-12-24T23:26:27.694Z,308.60
2022-12-24T23:28:54.664Z,270.73
2022-12-24T23:31:21.762Z,207.80
2022-12-24T23:33:48.646Z,231.45
2022-12-24T23:36:15.483Z,267.35
2022-12-24T23:38:42.340Z,211.07
2022-12-24T23:41:09.312Z,244.70
2022-12-24T23:43:36.531Z,258.83
2022-12-24T23:46:03.429Z,232.50
2022-12-24T23:48:30.194Z,326.88
2022-12-24T23:51:07.385Z,263.77
2022-12-24T23:53:34.234Z,266.38
2022-12-24T23:56:01.109Z,293.92
2022-12-24T23:58:28.234Z,226.13
